Helena, MT

8:11 PM MDT on April 23, 2017 (GMT -0600)
Capital High | | Change Station

Elev 3871 ft 46.62 °N, 112.05 °W | Updated 22 seconds ago

Clear
Clear
53.2 °F
Feels Like 53.2 °F
N
3.0
Wind Variable Wind from West

Today
High -- | Low -- °F
--% Chance of Precip.
Yesterday
High -- | Low -- °F
Precip. -- in
Pressure 29.74 in
Visibility 10.0 miles
Clouds Few 9000 ft
Dew Point 35 °F
Humidity 50%
Rainfall 0.00 in
Snow Depth Not available.
6:26 AM 8:27 PM
Waning Crescent, 8% visible
METAR KHLN 240153Z 27006KT 10SM FEW090 12/02 A2971 RMK AO2 SLP071 T01220017
Pressure 29.74 in
Visibility 10.0 miles
Clouds Few 9000 ft
Dew Point 35 °F
Humidity 50%
Rainfall 0.00 in
Snow Depth Not available.
6:26 AM 8:27 PM
Waning Crescent, 8% visible
METAR KHLN 240153Z 27006KT 10SM FEW090 12/02 A2971 RMK AO2 SLP071 T01220017

Get Severe Weather Alerts

Thanks for signing up!

Be on the lookout for a verification email in your inbox.

You'll start receiving the daily forecast at 8 AM.

×

10-Day Weather Forecast

Almanac

Astronomy

Apr. 23, 2017 Rise Set
Actual Time
Civil Twilight
Nautical Twilight
Astronomical Twilight
Moon
Length of Visible Light
Length of Day
Tomorrow will be .
, % of the Moon is Illuminated

Today's Extremes

State Highs State Lows

Community

WunderPhotos

WunderBlog® & News

Nearby

Air Quality

  Air Quality AQ Index Pollutant
Not available.

Snow Depth

Station Depth Elevation

Earthquake Activity

City Distance Mag. Time & Date
Minimum magnitude displayed is 2.5.

Coastal Water Temperatures

Place Temperature

Stations

Nearby Weather Stations

Station Location Temp. Windchill Dew Point Humidity Wind Precip. Elev Updated Type
                   

Watches & Warnings

There are currently no watches in effect.